createdAt,value
2019-06-27T20:17:19.000Z,6.11
2019-06-27T20:20:19.000Z,5.02
2019-06-27T20:23:19.000Z,3.85
2019-06-27T20:26:18.000Z,4.33
2019-06-27T20:29:18.000Z,3.14
2019-06-27T20:32:18.000Z,2.87
2019-06-27T20:35:18.000Z,3.21
2019-06-27T20:38:19.000Z,3.63
2019-06-27T20:41:19.000Z,2.55
2019-06-27T20:44:18.000Z,3.76
2019-06-27T20:47:18.000Z,3.61
2019-06-27T20:50:18.000Z,4.57
2019-06-27T20:53:18.000Z,3.26
2019-06-27T20:56:18.000Z,2.60
2019-06-27T20:59:18.000Z,4.41
2019-06-27T21:02:18.000Z,4.05
2019-06-27T21:05:18.000Z,2.78
2019-06-27T21:08:18.000Z,2.73
2019-06-27T21:11:18.000Z,3.15
2019-06-27T21:14:18.000Z,3.51
2019-06-27T21:17:18.000Z,4.01
2019-06-27T21:20:19.000Z,4.05
2019-06-27T21:23:18.000Z,3.71
2019-06-27T21:26:18.000Z,3.34
2019-06-27T21:29:18.000Z,2.36
2019-06-27T21:32:18.000Z,2.53
2019-06-27T21:35:18.000Z,3.12
2019-06-27T21:38:18.000Z,3.27
2019-06-27T21:41:18.000Z,2.88
2019-06-27T21:44:18.000Z,3.56
2019-06-27T21:47:19.000Z,2.21
2019-06-27T21:50:19.000Z,2.73
2019-06-27T21:53:19.000Z,2.30
2019-06-27T21:56:19.000Z,2.65
2019-06-27T21:59:19.000Z,3.03
2019-06-27T22:02:19.000Z,2.13
2019-06-27T22:05:19.000Z,2.24
2019-06-27T22:08:19.000Z,2.16
2019-06-27T22:11:19.000Z,3.37
2019-06-27T22:14:19.000Z,2.34
2019-06-27T22:17:18.000Z,2.59
2019-06-27T22:20:18.000Z,2.41
2019-06-27T22:23:18.000Z,2.14
2019-06-27T22:26:18.000Z,3.39
2019-06-27T22:29:18.000Z,2.15
2019-06-27T22:32:18.000Z,2.54
2019-06-27T22:35:18.000Z,3.01
2019-06-27T22:38:18.000Z,2.13
2019-06-27T22:41:18.000Z,2.11
2019-06-27T22:44:18.000Z,2.56
2019-06-27T22:47:19.000Z,2.01
2019-06-27T22:50:19.000Z,2.08
2019-06-27T22:53:19.000Z,2.14
2019-06-27T22:56:19.000Z,2.13
2019-06-27T22:59:19.000Z,1.81
2019-06-27T23:02:19.000Z,2.09
2019-06-27T23:05:19.000Z,2.10
2019-06-27T23:08:19.000Z,2.64
2019-06-27T23:11:19.000Z,3.31
2019-06-27T23:14:19.000Z,2.50
2019-06-27T23:17:18.000Z,2.01
2019-06-27T23:20:19.000Z,2.29
2019-06-27T23:23:18.000Z,1.90
2019-06-27T23:26:19.000Z,1.89
2019-06-27T23:29:18.000Z,2.51
2019-06-27T23:32:18.000Z,2.17
2019-06-27T23:35:18.000Z,1.90
2019-06-27T23:38:18.000Z,2.21
2019-06-27T23:41:19.000Z,2.05
2019-06-27T23:44:18.000Z,1.99
2019-06-27T23:47:18.000Z,1.93
2019-06-27T23:50:18.000Z,2.22
2019-06-27T23:53:18.000Z,2.67
2019-06-27T23:56:19.000Z,1.81
2019-06-27T23:59:18.000Z,2.12
